sensor_id;sensor_type;location;lat;lon;timestamp;pressure;altitude;pressure_sealevel;temperature
22828;BMP180;11580;52.562;13.418;2023-07-09T00:01:15;101263.00;;;22.50
22828;BMP180;11580;52.562;13.418;2023-07-09T00:03:44;101271.00;;;22.50
22828;BMP180;11580;52.562;13.418;2023-07-09T00:06:13;101265.00;;;22.40
22828;BMP180;11580;52.562;13.418;2023-07-09T00:08:44;101273.00;;;22.40
22828;BMP180;11580;52.562;13.418;2023-07-09T00:11:14;101272.00;;;22.40
22828;BMP180;11580;52.562;13.418;2023-07-09T00:13:42;101271.00;;;22.40
22828;BMP180;11580;52.562;13.418;2023-07-09T00:16:14;101275.00;;;22.40
22828;BMP180;11580;52.562;13.418;2023-07-09T00:18:44;101261.00;;;22.30
22828;BMP180;11580;52.562;13.418;2023-07-09T00:21:13;101267.00;;;22.30
22828;BMP180;11580;52.562;13.418;2023-07-09T00:23:40;101266.00;;;22.30
22828;BMP180;11580;52.562;13.418;2023-07-09T00:26:09;101264.00;;;22.20
22828;BMP180;11580;52.562;13.418;2023-07-09T00:28:37;101262.00;;;22.20
22828;BMP180;11580;52.562;13.418;2023-07-09T00:31:04;101257.00;;;22.20
22828;BMP180;11580;52.562;13.418;2023-07-09T00:33:32;101245.00;;;22.10
22828;BMP180;11580;52.562;13.418;2023-07-09T00:36:00;101247.00;;;22.10
22828;BMP180;11580;52.562;13.418;2023-07-09T00:38:28;101252.00;;;22.10
22828;BMP180;11580;52.562;13.418;2023-07-09T00:41:03;101252.00;;;22.00
22828;BMP180;11580;52.562;13.418;2023-07-09T00:43:34;101252.00;;;22.00
22828;BMP180;11580;52.562;13.418;2023-07-09T00:49:33;101243.00;;;21.90
22828;BMP180;11580;52.562;13.418;2023-07-09T00:52:19;101236.00;;;21.90
22828;BMP180;11580;52.562;13.418;2023-07-09T00:54:50;101237.00;;;21.90
22828;BMP180;11580;52.562;13.418;2023-07-09T00:57:24;101232.00;;;21.80
22828;BMP180;11580;52.562;13.418;2023-07-09T00:59:58;101239.00;;;21.80
22828;BMP180;11580;52.562;13.418;2023-07-09T01:02:27;101227.00;;;21.80
22828;BMP180;11580;52.562;13.418;2023-07-09T01:04:59;101226.00;;;21.80
22828;BMP180;11580;52.562;13.418;2023-07-09T01:07:30;101227.00;;;21.80
22828;BMP180;11580;52.562;13.418;2023-07-09T01:09:57;101232.00;;;21.80
22828;BMP180;11580;52.562;13.418;2023-07-09T01:12:26;101237.00;;;21.80
22828;BMP180;11580;52.562;13.418;2023-07-09T01:14:56;101234.00;;;21.80
22828;BMP180;11580;52.562;13.418;2023-07-09T01:17:27;101235.00;;;21.80
22828;BMP180;11580;52.562;13.418;2023-07-09T01:19:56;101235.00;;;21.80
22828;BMP180;11580;52.562;13.418;2023-07-09T01:22:26;101233.00;;;21.80
22828;BMP180;11580;52.562;13.418;2023-07-09T01:24:59;101238.00;;;21.80
22828;BMP180;11580;52.562;13.418;2023-07-09T01:27:31;101232.00;;;21.80
22828;BMP180;11580;52.562;13.418;2023-07-09T01:30:02;101237.00;;;21.70
22828;BMP180;11580;52.562;13.418;2023-07-09T01:32:32;101237.00;;;21.80
22828;BMP180;11580;52.562;13.418;2023-07-09T01:35:02;101240.00;;;21.70
22828;BMP180;11580;52.562;13.418;2023-07-09T01:37:36;101234.00;;;21.70
22828;BMP180;11580;52.562;13.418;2023-07-09T01:40:08;101236.00;;;21.70
22828;BMP180;11580;52.562;13.418;2023-07-09T01:42:36;101233.00;;;21.70
22828;BMP180;11580;52.562;13.418;2023-07-09T01:45:07;101228.00;;;21.70
22828;BMP180;11580;52.562;13.418;2023-07-09T01:47:36;101230.00;;;21.70
22828;BMP180;11580;52.562;13.418;2023-07-09T01:50:05;101240.00;;;21.70
22828;BMP180;11580;52.562;13.418;2023-07-09T01:52:35;101234.00;;;21.60
22828;BMP180;11580;52.562;13.418;2023-07-09T01:55:03;101229.00;;;21.60
22828;BMP180;11580;52.562;13.418;2023-07-09T01:57:31;101231.00;;;21.60
22828;BMP180;11580;52.562;13.418;2023-07-09T02:00:04;101208.00;;;21.60
22828;BMP180;11580;52.562;13.418;2023-07-09T02:02:46;101232.00;;;21.60
22828;BMP180;11580;52.562;13.418;2023-07-09T02:05:16;101230.00;;;21.60
22828;BMP180;11580;52.562;13.418;2023-07-09T02:07:46;101234.00;;;21.60
22828;BMP180;11580;52.562;13.418;2023-07-09T02:10:16;101227.00;;;21.60
22828;BMP180;11580;52.562;13.418;2023-07-09T02:12:44;101230.00;;;21.60
22828;BMP180;11580;52.562;13.418;2023-07-09T02:15:12;101239.00;;;21.60
22828;BMP180;11580;52.562;13.418;2023-07-09T02:17:40;101233.00;;;21.60
22828;BMP180;11580;52.562;13.418;2023-07-09T02:20:09;101232.00;;;21.60
22828;BMP180;11580;52.562;13.418;2023-07-09T02:22:38;101228.00;;;21.60
22828;BMP180;11580;52.562;13.418;2023-07-09T02:25:08;101238.00;;;21.60
22828;BMP180;11580;52.562;13.418;2023-07-09T02:27:36;101239.00;;;21.60
22828;BMP180;11580;52.562;13.418;2023-07-09T02:30:06;101238.00;;;21.60
22828;BMP180;11580;52.562;13.418;2023-07-09T02:32:33;101240.00;;;21.60
22828;BMP180;11580;52.562;13.418;2023-07-09T02:35:01;101242.00;;;21.60
22828;BMP180;11580;52.562;13.418;2023-07-09T02:37:28;101236.00;;;21.60
22828;BMP180;11580;52.562;13.418;2023-07-09T02:39:55;101247.00;;;21.60
22828;BMP180;11580;52.562;13.418;2023-07-09T02:42:25;101247.00;;;21.60
22828;BMP180;11580;52.562;13.418;2023-07-09T02:44:52;101253.00;;;21.60
22828;BMP180;11580;52.562;13.418;2023-07-09T02:47:20;101249.00;;;21.60
22828;BMP180;11580;52.562;13.418;2023-07-09T02:49:48;101259.00;;;21.50
22828;BMP180;11580;52.562;13.418;2023-07-09T02:52:16;101259.00;;;21.50
22828;BMP180;11580;52.562;13.418;2023-07-09T02:54:43;101263.00;;;21.50
22828;BMP180;11580;52.562;13.418;2023-07-09T02:57:11;101262.00;;;21.50
22828;BMP180;11580;52.562;13.418;2023-07-09T02:59:40;101257.00;;;21.50
22828;BMP180;11580;52.562;13.418;2023-07-09T03:02:07;101254.00;;;21.50
22828;BMP180;11580;52.562;13.418;2023-07-09T03:04:34;101257.00;;;21.50
22828;BMP180;11580;52.562;13.418;2023-07-09T03:07:02;101251.00;;;21.50
22828;BMP180;11580;52.562;13.418;2023-07-09T03:09:29;101253.00;;;21.50
22828;BMP180;11580;52.562;13.418;2023-07-09T03:11:57;101256.00;;;21.60
22828;BMP180;11580;52.562;13.418;2023-07-09T03:14:24;101266.00;;;21.70
22828;BMP180;11580;52.562;13.418;2023-07-09T03:16:53;101266.00;;;21.80
22828;BMP180;11580;52.562;13.418;2023-07-09T03:19:21;101258.00;;;21.90
22828;BMP180;11580;52.562;13.418;2023-07-09T03:21:49;101260.00;;;22.00
22828;BMP180;11580;52.562;13.418;2023-07-09T03:24:16;101267.00;;;22.20
22828;BMP180;11580;52.562;13.418;2023-07-09T03:26:44;101269.00;;;22.40
22828;BMP180;11580;52.562;13.418;2023-07-09T03:29:12;101269.00;;;22.60
22828;BMP180;11580;52.562;13.418;2023-07-09T03:31:39;101266.00;;;22.90
22828;BMP180;11580;52.562;13.418;2023-07-09T03:34:08;101275.00;;;23.10
22828;BMP180;11580;52.562;13.418;2023-07-09T03:36:35;101273.00;;;23.40
22828;BMP180;11580;52.562;13.418;2023-07-09T03:39:04;101280.00;;;23.60
22828;BMP180;11580;52.562;13.418;2023-07-09T03:41:31;101273.00;;;23.90
22828;BMP180;11580;52.562;13.418;2023-07-09T03:43:58;101274.00;;;24.20
22828;BMP180;11580;52.562;13.418;2023-07-09T03:46:25;101273.00;;;24.60
22828;BMP180;11580;52.562;13.418;2023-07-09T03:48:52;101277.00;;;25.00
22828;BMP180;11580;52.562;13.418;2023-07-09T03:51:21;101277.00;;;25.30
22828;BMP180;11580;52.562;13.418;2023-07-09T03:53:48;101286.00;;;25.70
22828;BMP180;11580;52.562;13.418;2023-07-09T03:56:15;101290.00;;;26.10
22828;BMP180;11580;52.562;13.418;2023-07-09T03:58:42;101288.00;;;26.30
22828;BMP180;11580;52.562;13.418;2023-07-09T04:01:10;101287.00;;;26.60
22828;BMP180;11580;52.562;13.418;2023-07-09T04:03:37;101294.00;;;26.90
22828;BMP180;11580;52.562;13.418;2023-07-09T04:06:04;101296.00;;;27.20
22828;BMP180;11580;52.562;13.418;2023-07-09T04:08:33;101301.00;;;27.50
22828;BMP180;11580;52.562;13.418;2023-07-09T04:11:01;101305.00;;;27.80
22828;BMP180;11580;52.562;13.418;2023-07-09T04:13:29;101303.00;;;28.10
22828;BMP180;11580;52.562;13.418;2023-07-09T04:15:57;101305.00;;;28.40
22828;BMP180;11580;52.562;13.418;2023-07-09T04:18:24;101306.00;;;28.80
22828;BMP180;11580;52.562;13.418;2023-07-09T04:20:52;101310.00;;;29.10
22828;BMP180;11580;52.562;13.418;2023-07-09T04:23:19;101314.00;;;29.50
22828;BMP180;11580;52.562;13.418;2023-07-09T04:25:48;101316.00;;;29.80
22828;BMP180;11580;52.562;13.418;2023-07-09T04:28:15;101316.00;;;30.10
22828;BMP180;11580;52.562;13.418;2023-07-09T04:30:47;101313.00;;;30.40
22828;BMP180;11580;52.562;13.418;2023-07-09T04:33:15;101315.00;;;30.70
22828;BMP180;11580;52.562;13.418;2023-07-09T04:35:45;101317.00;;;31.00
22828;BMP180;11580;52.562;13.418;2023-07-09T04:38:12;101317.00;;;31.30
22828;BMP180;11580;52.562;13.418;2023-07-09T04:40:40;101324.00;;;31.50
22828;BMP180;11580;52.562;13.418;2023-07-09T04:43:08;101320.00;;;31.80
22828;BMP180;11580;52.562;13.418;2023-07-09T04:45:35;101319.00;;;31.80
22828;BMP180;11580;52.562;13.418;2023-07-09T04:48:03;101322.00;;;32.00
22828;BMP180;11580;52.562;13.418;2023-07-09T04:50:31;101330.00;;;32.10
22828;BMP180;11580;52.562;13.418;2023-07-09T04:52:59;101335.00;;;32.20
22828;BMP180;11580;52.562;13.418;2023-07-09T04:55:26;101342.00;;;32.20
22828;BMP180;11580;52.562;13.418;2023-07-09T04:57:54;101341.00;;;32.30
22828;BMP180;11580;52.562;13.418;2023-07-09T05:00:23;101328.00;;;32.20
22828;BMP180;11580;52.562;13.418;2023-07-09T05:02:50;101343.00;;;32.20
22828;BMP180;11580;52.562;13.418;2023-07-09T05:05:17;101334.00;;;32.10
22828;BMP180;11580;52.562;13.418;2023-07-09T05:07:44;101335.00;;;31.90
22828;BMP180;11580;52.562;13.418;2023-07-09T05:10:12;101333.00;;;31.70
22828;BMP180;11580;52.562;13.418;2023-07-09T05:12:49;101333.00;;;31.60
22828;BMP180;11580;52.562;13.418;2023-07-09T05:15:17;101336.00;;;31.30
22828;BMP180;11580;52.562;13.418;2023-07-09T05:17:46;101328.00;;;31.10
22828;BMP180;11580;52.562;13.418;2023-07-09T05:20:14;101331.00;;;30.90
22828;BMP180;11580;52.562;13.418;2023-07-09T05:22:42;101329.00;;;30.70
22828;BMP180;11580;52.562;13.418;2023-07-09T05:25:09;101331.00;;;30.60
22828;BMP180;11580;52.562;13.418;2023-07-09T05:27:36;101328.00;;;30.50
22828;BMP180;11580;52.562;13.418;2023-07-09T05:30:05;101333.00;;;30.30
22828;BMP180;11580;52.562;13.418;2023-07-09T05:32:33;101328.00;;;30.20
22828;BMP180;11580;52.562;13.418;2023-07-09T05:35:01;101339.00;;;30.10
22828;BMP180;11580;52.562;13.418;2023-07-09T05:37:28;101335.00;;;29.90
22828;BMP180;11580;52.562;13.418;2023-07-09T05:39:56;101335.00;;;29.80
22828;BMP180;11580;52.562;13.418;2023-07-09T05:42:23;101334.00;;;29.60
22828;BMP180;11580;52.562;13.418;2023-07-09T05:44:51;101332.00;;;29.50
22828;BMP180;11580;52.562;13.418;2023-07-09T05:47:19;101339.00;;;29.30
22828;BMP180;11580;52.562;13.418;2023-07-09T05:49:46;101338.00;;;29.10
22828;BMP180;11580;52.562;13.418;2023-07-09T05:52:17;101326.00;;;29.00
22828;BMP180;11580;52.562;13.418;2023-07-09T05:54:44;101338.00;;;28.80
22828;BMP180;11580;52.562;13.418;2023-07-09T05:57:12;101330.00;;;28.60
22828;BMP180;11580;52.562;13.418;2023-07-09T05:59:39;101328.00;;;28.50
22828;BMP180;11580;52.562;13.418;2023-07-09T06:02:10;101320.00;;;28.40
22828;BMP180;11580;52.562;13.418;2023-07-09T06:04:38;101325.00;;;28.20
22828;BMP180;11580;52.562;13.418;2023-07-09T06:07:05;101329.00;;;28.10
22828;BMP180;11580;52.562;13.418;2023-07-09T06:09:34;101328.00;;;28.00
22828;BMP180;11580;52.562;13.418;2023-07-09T06:12:02;101322.00;;;27.80
22828;BMP180;11580;52.562;13.418;2023-07-09T06:14:31;101321.00;;;27.70
22828;BMP180;11580;52.562;13.418;2023-07-09T06:16:58;101328.00;;;27.70
22828;BMP180;11580;52.562;13.418;2023-07-09T06:19:26;101322.00;;;27.60
22828;BMP180;11580;52.562;13.418;2023-07-09T06:21:53;101325.00;;;27.50
22828;BMP180;11580;52.562;13.418;2023-07-09T06:24:22;101327.00;;;27.50
22828;BMP180;11580;52.562;13.418;2023-07-09T06:26:50;101331.00;;;27.50
22828;BMP180;11580;52.562;13.418;2023-07-09T06:29:17;101336.00;;;27.40
22828;BMP180;11580;52.562;13.418;2023-07-09T06:31:45;101335.00;;;27.40
22828;BMP180;11580;52.562;13.418;2023-07-09T06:34:12;101339.00;;;27.50
22828;BMP180;11580;52.562;13.418;2023-07-09T06:36:39;101340.00;;;27.50
22828;BMP180;11580;52.562;13.418;2023-07-09T06:39:07;101341.00;;;27.50
22828;BMP180;11580;52.562;13.418;2023-07-09T06:41:35;101340.00;;;27.50
22828;BMP180;11580;52.562;13.418;2023-07-09T06:44:07;101337.00;;;27.50
22828;BMP180;11580;52.562;13.418;2023-07-09T06:46:35;101333.00;;;27.50
22828;BMP180;11580;52.562;13.418;2023-07-09T06:49:03;101336.00;;;27.60
22828;BMP180;11580;52.562;13.418;2023-07-09T06:51:33;101344.00;;;27.60
22828;BMP180;11580;52.562;13.418;2023-07-09T06:54:00;101337.00;;;27.70
22828;BMP180;11580;52.562;13.418;2023-07-09T06:56:27;101341.00;;;27.80
22828;BMP180;11580;52.562;13.418;2023-07-09T06:58:54;101343.00;;;27.80
22828;BMP180;11580;52.562;13.418;2023-07-09T07:01:23;101339.00;;;27.90
22828;BMP180;11580;52.562;13.418;2023-07-09T07:03:50;101340.00;;;27.90
22828;BMP180;11580;52.562;13.418;2023-07-09T07:06:17;101342.00;;;28.00
22828;BMP180;11580;52.562;13.418;2023-07-09T07:08:44;101347.00;;;28.00
22828;BMP180;11580;52.562;13.418;2023-07-09T07:11:12;101344.00;;;28.10
22828;BMP180;11580;52.562;13.418;2023-07-09T07:13:40;101346.00;;;28.20
22828;BMP180;11580;52.562;13.418;2023-07-09T07:16:11;101348.00;;;28.20
22828;BMP180;11580;52.562;13.418;2023-07-09T07:18:40;101341.00;;;28.30
22828;BMP180;11580;52.562;13.418;2023-07-09T07:21:07;101349.00;;;28.30
22828;BMP180;11580;52.562;13.418;2023-07-09T07:23:35;101355.00;;;28.40
22828;BMP180;11580;52.562;13.418;2023-07-09T07:26:02;101350.00;;;28.50
22828;BMP180;11580;52.562;13.418;2023-07-09T07:28:30;101347.00;;;28.60
22828;BMP180;11580;52.562;13.418;2023-07-09T07:30:59;101348.00;;;28.60
22828;BMP180;11580;52.562;13.418;2023-07-09T07:33:26;101352.00;;;28.70
22828;BMP180;11580;52.562;13.418;2023-07-09T07:35:55;101351.00;;;28.70
22828;BMP180;11580;52.562;13.418;2023-07-09T07:38:22;101350.00;;;28.80
22828;BMP180;11580;52.562;13.418;2023-07-09T07:40:49;101346.00;;;28.90
22828;BMP180;11580;52.562;13.418;2023-07-09T07:43:16;101345.00;;;29.00
22828;BMP180;11580;52.562;13.418;2023-07-09T07:45:44;101355.00;;;29.00
22828;BMP180;11580;52.562;13.418;2023-07-09T07:48:11;101345.00;;;29.10
22828;BMP180;11580;52.562;13.418;2023-07-09T07:50:39;101348.00;;;29.20
22828;BMP180;11580;52.562;13.418;2023-07-09T07:53:10;101350.00;;;29.30
22828;BMP180;11580;52.562;13.418;2023-07-09T07:55:37;101346.00;;;29.30
22828;BMP180;11580;52.562;13.418;2023-07-09T07:58:04;101349.00;;;29.40
22828;BMP180;11580;52.562;13.418;2023-07-09T08:00:32;101345.00;;;29.50
22828;BMP180;11580;52.562;13.418;2023-07-09T08:02:59;101346.00;;;29.50
22828;BMP180;11580;52.562;13.418;2023-07-09T08:05:26;101343.00;;;29.60
22828;BMP180;11580;52.562;13.418;2023-07-09T08:07:53;101342.00;;;29.70
22828;BMP180;11580;52.562;13.418;2023-07-09T08:10:22;101346.00;;;29.80
22828;BMP180;11580;52.562;13.418;2023-07-09T08:12:50;101348.00;;;29.80
22828;BMP180;11580;52.562;13.418;2023-07-09T08:15:22;101350.00;;;29.90
22828;BMP180;11580;52.562;13.418;2023-07-09T08:17:49;101345.00;;;29.90
22828;BMP180;11580;52.562;13.418;2023-07-09T08:20:17;101345.00;;;30.00
22828;BMP180;11580;52.562;13.418;2023-07-09T08:22:44;101347.00;;;30.00
22828;BMP180;11580;52.562;13.418;2023-07-09T08:25:12;101351.00;;;30.10
22828;BMP180;11580;52.562;13.418;2023-07-09T08:27:40;101361.00;;;30.20
22828;BMP180;11580;52.562;13.418;2023-07-09T08:30:09;101355.00;;;30.30
22828;BMP180;11580;52.562;13.418;2023-07-09T08:32:36;101348.00;;;30.40
22828;BMP180;11580;52.562;13.418;2023-07-09T08:35:04;101349.00;;;30.50
22828;BMP180;11580;52.562;13.418;2023-07-09T08:37:31;101343.00;;;30.60
22828;BMP180;11580;52.562;13.418;2023-07-09T08:39:59;101349.00;;;30.70
22828;BMP180;11580;52.562;13.418;2023-07-09T08:42:32;101342.00;;;30.70
22828;BMP180;11580;52.562;13.418;2023-07-09T08:45:24;101349.00;;;30.80
22828;BMP180;11580;52.562;13.418;2023-07-09T08:48:03;101347.00;;;30.80
22828;BMP180;11580;52.562;13.418;2023-07-09T08:50:38;101346.00;;;30.80
22828;BMP180;11580;52.562;13.418;2023-07-09T08:53:15;101351.00;;;30.90
22828;BMP180;11580;52.562;13.418;2023-07-09T08:55:47;101344.00;;;31.00
22828;BMP180;11580;52.562;13.418;2023-07-09T08:58:23;101343.00;;;31.00
22828;BMP180;11580;52.562;13.418;2023-07-09T09:00:56;101345.00;;;31.10
22828;BMP180;11580;52.562;13.418;2023-07-09T09:03:35;101341.00;;;31.10
22828;BMP180;11580;52.562;13.418;2023-07-09T09:06:11;101341.00;;;31.20
22828;BMP180;11580;52.562;13.418;2023-07-09T09:08:46;101340.00;;;31.20
22828;BMP180;11580;52.562;13.418;2023-07-09T09:11:21;101346.00;;;31.30
22828;BMP180;11580;52.562;13.418;2023-07-09T09:13:54;101346.00;;;31.30
22828;BMP180;11580;52.562;13.418;2023-07-09T09:16:28;101345.00;;;31.40
22828;BMP180;11580;52.562;13.418;2023-07-09T09:18:59;101343.00;;;31.40
22828;BMP180;11580;52.562;13.418;2023-07-09T09:21:34;101344.00;;;31.50
22828;BMP180;11580;52.562;13.418;2023-07-09T09:24:19;101336.00;;;31.50
22828;BMP180;11580;52.562;13.418;2023-07-09T09:26:49;101335.00;;;31.50
22828;BMP180;11580;52.562;13.418;2023-07-09T09:29:18;101330.00;;;31.60
22828;BMP180;11580;52.562;13.418;2023-07-09T09:31:54;101335.00;;;31.60
22828;BMP180;11580;52.562;13.418;2023-07-09T09:34:25;101347.00;;;31.60
22828;BMP180;11580;52.562;13.418;2023-07-09T09:36:53;101348.00;;;31.70
22828;BMP180;11580;52.562;13.418;2023-07-09T09:39:23;101344.00;;;31.70
22828;BMP180;11580;52.562;13.418;2023-07-09T09:41:54;101346.00;;;31.70
22828;BMP180;11580;52.562;13.418;2023-07-09T09:44:26;101357.00;;;31.70
22828;BMP180;11580;52.562;13.418;2023-07-09T09:46:57;101350.00;;;31.70
22828;BMP180;11580;52.562;13.418;2023-07-09T09:49:24;101359.00;;;31.70
22828;BMP180;11580;52.562;13.418;2023-07-09T09:51:52;101349.00;;;31.80
22828;BMP180;11580;52.562;13.418;2023-07-09T09:54:27;101348.00;;;31.80
22828;BMP180;11580;52.562;13.418;2023-07-09T09:56:56;101347.00;;;31.80
22828;BMP180;11580;52.562;13.418;2023-07-09T09:59:29;101345.00;;;31.90
22828;BMP180;11580;52.562;13.418;2023-07-09T10:02:01;101342.00;;;31.90
22828;BMP180;11580;52.562;13.418;2023-07-09T10:04:29;101360.00;;;32.00
22828;BMP180;11580;52.562;13.418;2023-07-09T10:07:01;101358.00;;;32.00
22828;BMP180;11580;52.562;13.418;2023-07-09T10:09:43;101350.00;;;32.00
22828;BMP180;11580;52.562;13.418;2023-07-09T10:12:24;101349.00;;;32.00
22828;BMP180;11580;52.562;13.418;2023-07-09T10:15:01;101349.00;;;32.10
22828;BMP180;11580;52.562;13.418;2023-07-09T10:17:39;101357.00;;;32.10
22828;BMP180;11580;52.562;13.418;2023-07-09T10:20:21;101340.00;;;32.20
22828;BMP180;11580;52.562;13.418;2023-07-09T10:22:55;101343.00;;;32.20
22828;BMP180;11580;52.562;13.418;2023-07-09T10:25:38;101337.00;;;32.20
22828;BMP180;11580;52.562;13.418;2023-07-09T10:28:45;101351.00;;;32.30
22828;BMP180;11580;52.562;13.418;2023-07-09T10:31:21;101343.00;;;32.30
22828;BMP180;11580;52.562;13.418;2023-07-09T10:34:01;101347.00;;;32.30
22828;BMP180;11580;52.562;13.418;2023-07-09T10:36:54;101348.00;;;32.40
22828;BMP180;11580;52.562;13.418;2023-07-09T10:39:32;101347.00;;;32.40
22828;BMP180;11580;52.562;13.418;2023-07-09T10:42:02;101352.00;;;32.40
22828;BMP180;11580;52.562;13.418;2023-07-09T10:44:36;101341.00;;;32.40
22828;BMP180;11580;52.562;13.418;2023-07-09T10:47:11;101340.00;;;32.50
22828;BMP180;11580;52.562;13.418;2023-07-09T10:49:43;101348.00;;;32.50
22828;BMP180;11580;52.562;13.418;2023-07-09T10:52:21;101344.00;;;32.50
22828;BMP180;11580;52.562;13.418;2023-07-09T10:54:58;101335.00;;;32.60
22828;BMP180;11580;52.562;13.418;2023-07-09T10:57:35;101338.00;;;32.60
22828;BMP180;11580;52.562;13.418;2023-07-09T11:00:15;101339.00;;;32.60
22828;BMP180;11580;52.562;13.418;2023-07-09T11:02:46;101340.00;;;32.70
22828;BMP180;11580;52.562;13.418;2023-07-09T11:05:16;101336.00;;;32.70
22828;BMP180;11580;52.562;13.418;2023-07-09T11:07:52;101344.00;;;32.80
22828;BMP180;11580;52.562;13.418;2023-07-09T11:10:27;101334.00;;;32.80
22828;BMP180;11580;52.562;13.418;2023-07-09T11:13:01;101335.00;;;32.80
22828;BMP180;11580;52.562;13.418;2023-07-09T11:15:34;101332.00;;;32.80
22828;BMP180;11580;52.562;13.418;2023-07-09T11:18:06;101333.00;;;32.90
22828;BMP180;11580;52.562;13.418;2023-07-09T11:20:43;101332.00;;;32.90
22828;BMP180;11580;52.562;13.418;2023-07-09T11:23:19;101323.00;;;33.00
22828;BMP180;11580;52.562;13.418;2023-07-09T11:25:49;101330.00;;;33.00
22828;BMP180;11580;52.562;13.418;2023-07-09T11:28:17;101325.00;;;33.10
22828;BMP180;11580;52.562;13.418;2023-07-09T11:31:06;101322.00;;;33.10
22828;BMP180;11580;52.562;13.418;2023-07-09T11:33:45;101324.00;;;33.20
22828;BMP180;11580;52.562;13.418;2023-07-09T11:36:25;101309.00;;;33.20
22828;BMP180;11580;52.562;13.418;2023-07-09T11:38:53;101315.00;;;33.20
22828;BMP180;11580;52.562;13.418;2023-07-09T11:41:38;101313.00;;;33.20
22828;BMP180;11580;52.562;13.418;2023-07-09T11:44:17;101311.00;;;33.30
22828;BMP180;11580;52.562;13.418;2023-07-09T11:46:58;101300.00;;;33.30
22828;BMP180;11580;52.562;13.418;2023-07-09T11:49:36;101294.00;;;33.30
22828;BMP180;11580;52.562;13.418;2023-07-09T11:52:09;101296.00;;;33.30
22828;BMP180;11580;52.562;13.418;2023-07-09T11:54:38;101295.00;;;33.40
22828;BMP180;11580;52.562;13.418;2023-07-09T11:57:12;101302.00;;;33.40
22828;BMP180;11580;52.562;13.418;2023-07-09T11:59:41;101302.00;;;33.50
22828;BMP180;11580;52.562;13.418;2023-07-09T12:02:17;101300.00;;;33.50
22828;BMP180;11580;52.562;13.418;2023-07-09T12:04:50;101293.00;;;33.50
22828;BMP180;11580;52.562;13.418;2023-07-09T12:07:21;101290.00;;;33.50
22828;BMP180;11580;52.562;13.418;2023-07-09T12:09:50;101295.00;;;33.60
22828;BMP180;11580;52.562;13.418;2023-07-09T12:12:24;101280.00;;;33.60
22828;BMP180;11580;52.562;13.418;2023-07-09T12:14:52;101283.00;;;33.60
22828;BMP180;11580;52.562;13.418;2023-07-09T12:17:23;101272.00;;;33.60
22828;BMP180;11580;52.562;13.418;2023-07-09T12:19:52;101254.00;;;33.70
22828;BMP180;11580;52.562;13.418;2023-07-09T12:22:22;101270.00;;;33.70
22828;BMP180;11580;52.562;13.418;2023-07-09T12:24:50;101279.00;;;33.70
22828;BMP180;11580;52.562;13.418;2023-07-09T12:27:25;101278.00;;;33.70
22828;BMP180;11580;52.562;13.418;2023-07-09T12:29:57;101283.00;;;33.80
22828;BMP180;11580;52.562;13.418;2023-07-09T12:32:24;101274.00;;;33.80
22828;BMP180;11580;52.562;13.418;2023-07-09T12:34:54;101271.00;;;33.80
22828;BMP180;11580;52.562;13.418;2023-07-09T12:37:27;101266.00;;;33.80
22828;BMP180;11580;52.562;13.418;2023-07-09T12:40:00;101258.00;;;33.80
22828;BMP180;11580;52.562;13.418;2023-07-09T12:42:32;101263.00;;;33.90
22828;BMP180;11580;52.562;13.418;2023-07-09T12:45:01;101264.00;;;33.90
22828;BMP180;11580;52.562;13.418;2023-07-09T12:47:28;101263.00;;;33.90
22828;BMP180;11580;52.562;13.418;2023-07-09T12:50:02;101253.00;;;33.90
22828;BMP180;11580;52.562;13.418;2023-07-09T12:52:31;101252.00;;;33.90
22828;BMP180;11580;52.562;13.418;2023-07-09T12:55:00;101248.00;;;34.00
22828;BMP180;11580;52.562;13.418;2023-07-09T12:57:29;101248.00;;;34.00
22828;BMP180;11580;52.562;13.418;2023-07-09T12:59:57;101241.00;;;34.00
22828;BMP180;11580;52.562;13.418;2023-07-09T13:02:26;101243.00;;;34.00
22828;BMP180;11580;52.562;13.418;2023-07-09T13:05:03;101231.00;;;34.10
22828;BMP180;11580;52.562;13.418;2023-07-09T13:07:37;101234.00;;;34.10
22828;BMP180;11580;52.562;13.418;2023-07-09T13:10:14;101238.00;;;34.10
22828;BMP180;11580;52.562;13.418;2023-07-09T13:12:46;101249.00;;;34.00
22828;BMP180;11580;52.562;13.418;2023-07-09T13:15:28;101240.00;;;34.10
22828;BMP180;11580;52.562;13.418;2023-07-09T13:18:05;101237.00;;;34.10
22828;BMP180;11580;52.562;13.418;2023-07-09T13:20:37;101240.00;;;34.10
22828;BMP180;11580;52.562;13.418;2023-07-09T13:23:11;101239.00;;;34.10
22828;BMP180;11580;52.562;13.418;2023-07-09T13:25:39;101230.00;;;34.00
22828;BMP180;11580;52.562;13.418;2023-07-09T13:28:16;101234.00;;;34.00
22828;BMP180;11580;52.562;13.418;2023-07-09T13:30:43;101237.00;;;34.10
22828;BMP180;11580;52.562;13.418;2023-07-09T13:33:11;101232.00;;;34.10
22828;BMP180;11580;52.562;13.418;2023-07-09T13:35:38;101232.00;;;34.10
22828;BMP180;11580;52.562;13.418;2023-07-09T13:38:13;101225.00;;;34.10
22828;BMP180;11580;52.562;13.418;2023-07-09T13:40:43;101225.00;;;34.10
22828;BMP180;11580;52.562;13.418;2023-07-09T13:43:14;101237.00;;;34.10
22828;BMP180;11580;52.562;13.418;2023-07-09T13:45:41;101229.00;;;34.10
22828;BMP180;11580;52.562;13.418;2023-07-09T13:48:20;101230.00;;;34.10
22828;BMP180;11580;52.562;13.418;2023-07-09T13:50:50;101229.00;;;34.10
22828;BMP180;11580;52.562;13.418;2023-07-09T13:53:22;101222.00;;;34.10
22828;BMP180;11580;52.562;13.418;2023-07-09T13:55:50;101220.00;;;34.20
22828;BMP180;11580;52.562;13.418;2023-07-09T13:58:21;101225.00;;;34.20
22828;BMP180;11580;52.562;13.418;2023-07-09T14:00:56;101229.00;;;34.30
22828;BMP180;11580;52.562;13.418;2023-07-09T14:03:28;101229.00;;;34.30
22828;BMP180;11580;52.562;13.418;2023-07-09T14:05:57;101223.00;;;34.30